createdAt,value
2018-07-30T00:01:15.050Z,72
2018-07-30T00:06:46.006Z,72
2018-07-30T00:12:15.875Z,72
2018-07-30T00:17:41.096Z,72
2018-07-30T00:23:10.734Z,72
2018-07-30T00:28:40.728Z,73
2018-07-30T00:34:11.619Z,73
2018-07-30T00:39:42.595Z,73
2018-07-30T00:45:13.438Z,73
2018-07-30T00:50:43.321Z,73
2018-07-30T00:56:18.347Z,73
2018-07-30T01:01:49.638Z,73
2018-07-30T01:07:14.035Z,73
2018-07-30T01:12:45.167Z,73
2018-07-30T01:18:20.820Z,73
2018-07-30T01:23:45.712Z,73
2018-07-30T01:29:15.655Z,73
2018-07-30T01:34:46.543Z,73
2018-07-30T01:40:17.526Z,73
2018-07-30T01:45:53.439Z,73
2018-07-30T01:51:19.396Z,73
2018-07-30T01:56:49.522Z,73
2018-07-30T02:02:20.222Z,73
2018-07-30T02:07:50.161Z,73
2018-07-30T02:13:20.227Z,73
2018-07-30T02:18:50.096Z,74
2018-07-30T02:24:20.069Z,74
2018-07-30T02:29:51.175Z,74
2018-07-30T02:35:22.090Z,74
2018-07-30T02:40:57.901Z,75
2018-07-30T02:46:22.818Z,75
2018-07-30T02:51:52.711Z,75
2018-07-30T02:57:23.640Z,76
2018-07-30T03:02:54.516Z,76
2018-07-30T03:08:24.407Z,76
2018-07-30T03:13:59.398Z,76
2018-07-30T03:19:30.233Z,76
2018-07-30T03:24:56.461Z,76
2018-07-30T03:30:26.993Z,76
2018-07-30T03:35:56.857Z,76
2018-07-30T03:41:27.651Z,76
2018-07-30T03:46:58.640Z,76
2018-07-30T03:52:29.479Z,76
2018-07-30T03:58:05.534Z,76
2018-07-30T04:03:30.227Z,76
2018-07-30T04:09:01.174Z,76
2018-07-30T04:14:37.049Z,76
2018-07-30T04:20:03.062Z,76
2018-07-30T04:25:33.849Z,76
2018-07-30T04:31:04.838Z,76
2018-07-30T04:36:40.747Z,76
2018-07-30T04:42:06.655Z,76
2018-07-30T04:47:36.623Z,76
2018-07-30T04:53:06.575Z,76
2018-07-30T04:58:37.563Z,76
2018-07-30T05:04:12.540Z,76
2018-07-30T05:09:37.524Z,76
2018-07-30T05:15:08.492Z,76
2018-07-30T05:20:39.515Z,77
2018-07-30T05:26:09.526Z,77
2018-07-30T05:31:40.585Z,77
2018-07-30T05:37:11.601Z,77
2018-07-30T05:42:47.578Z,77
2018-07-30T05:48:17.492Z,77
2018-07-30T05:53:48.574Z,77
2018-07-30T05:59:19.730Z,76
2018-07-30T06:04:44.514Z,76
2018-07-30T06:10:15.581Z,75
2018-07-30T06:15:46.657Z,74
2018-07-30T06:21:17.767Z,73
2018-07-30T06:26:49.008Z,73
2018-07-30T06:32:24.079Z,73
2018-07-30T06:37:54.343Z,72
2018-07-30T06:48:49.634Z,72
2018-07-30T06:48:50.604Z,72
2018-07-30T06:54:20.872Z,71
2018-07-30T06:59:52.091Z,71
2018-07-30T07:05:28.345Z,70
2018-07-30T07:10:59.059Z,70
2018-07-30T07:16:24.891Z,70
2018-07-30T07:21:55.275Z,70
2018-07-30T07:27:26.507Z,69
2018-07-30T07:32:57.720Z,69
2018-07-30T07:38:28.080Z,68
2018-07-30T07:43:58.585Z,68
2018-07-30T07:49:28.747Z,68
2018-07-30T07:54:59.065Z,68
2018-07-30T08:00:29.369Z,67
2018-07-30T08:06:00.976Z,67
2018-07-30T08:11:31.051Z,67
2018-07-30T08:11:31.707Z,67
2018-07-30T08:17:06.540Z,66
2018-07-30T08:22:31.874Z,66
2018-07-30T08:28:03.164Z,64
2018-07-30T08:33:33.572Z,64
2018-07-30T08:39:04.076Z,64
2018-07-30T08:44:35.499Z,63
2018-07-30T08:50:05.900Z,63
2018-07-30T08:55:36.297Z,63
2018-07-30T09:01:08.197Z,62
2018-07-30T09:06:38.564Z,62
2018-07-30T09:12:09.841Z,61
2018-07-30T09:17:41.403Z,61
2018-07-30T09:23:16.954Z,61
2018-07-30T09:28:43.547Z,61
2018-07-30T09:28:45.532Z,61
2018-07-30T09:34:20.325Z,60
2018-07-30T09:39:51.999Z,60
2018-07-30T09:45:23.353Z,60
2018-07-30T09:50:49.108Z,59
2018-07-30T09:56:19.777Z,59
2018-07-30T10:01:51.099Z,59
2018-07-30T10:01:51.820Z,59
2018-07-30T10:07:21.825Z,59
2018-07-30T10:12:57.684Z,59
2018-07-30T10:18:24.160Z,59
2018-07-30T10:23:55.034Z,59
2018-07-30T10:29:30.809Z,60
2018-07-30T10:35:02.019Z,60
2018-07-30T10:40:28.555Z,61
2018-07-30T10:45:59.499Z,62
2018-07-30T10:46:00.249Z,62
2018-07-30T10:51:30.468Z,62
2018-07-30T10:51:34.714Z,62
2018-07-30T10:57:06.083Z,62
2018-07-30T11:02:32.269Z,62
2018-07-30T11:08:07.525Z,60
2018-07-30T11:13:34.490Z,60
2018-07-30T11:19:04.913Z,59
2018-07-30T11:24:35.682Z,59
2018-07-30T11:30:07.778Z,59
2018-07-30T11:35:38.045Z,58
2018-07-30T11:41:10.028Z,58
2018-07-30T11:41:10.401Z,58
2018-07-30T11:46:40.581Z,58
2018-07-30T11:52:16.324Z,58
2018-07-30T11:57:42.027Z,57
2018-07-30T12:03:13.817Z,56
2018-07-30T12:08:45.644Z,57
2018-07-30T12:14:17.666Z,56
2018-07-30T12:19:48.248Z,56
2018-07-30T12:25:24.361Z,56
2018-07-30T12:30:49.845Z,57
2018-07-30T12:41:52.906Z,57
2018-07-30T12:47:23.067Z,57
2018-07-30T12:52:55.029Z,56
2018-07-30T12:58:31.938Z,55
2018-07-30T13:04:03.906Z,55
2018-07-30T13:09:29.890Z,54
2018-07-30T13:15:01.699Z,54
2018-07-30T13:20:32.814Z,54
2018-07-30T13:26:08.703Z,53
2018-07-30T13:31:35.358Z,53
2018-07-30T13:37:12.484Z,53
2018-07-30T13:42:39.389Z,53
2018-07-30T13:48:11.279Z,53
2018-07-30T13:53:47.872Z,53
2018-07-30T13:59:18.995Z,53
2018-07-30T14:04:50.521Z,53
2018-07-30T14:10:17.361Z,53
2018-07-30T14:15:48.187Z,53
2018-07-30T14:15:48.940Z,53
2018-07-30T14:21:19.232Z,53
2018-07-30T14:26:49.769Z,52
2018-07-30T14:37:56.542Z,52
2018-07-30T14:49:00.144Z,52
2018-07-30T14:54:26.785Z,52
2018-07-30T14:59:57.095Z,52
2018-07-30T15:05:33.081Z,52
2018-07-30T15:10:58.905Z,52
2018-07-30T15:16:34.501Z,53
2018-07-30T15:22:01.364Z,53
2018-07-30T15:27:32.142Z,53
2018-07-30T15:33:04.249Z,53
2018-07-30T15:38:34.885Z,53
2018-07-30T15:44:05.714Z,52
2018-07-30T15:49:41.594Z,52
2018-07-30T15:55:13.769Z,52
2018-07-30T16:00:40.285Z,52
2018-07-30T16:00:46.915Z,52
2018-07-30T16:06:11.162Z,51
2018-07-30T16:11:47.544Z,51
2018-07-30T16:17:19.092Z,51
2018-07-30T16:22:51.229Z,51
2018-07-30T16:28:17.765Z,51
2018-07-30T16:33:53.719Z,51
2018-07-30T16:39:20.812Z,51
2018-07-30T16:44:52.511Z,51
2018-07-30T16:44:53.352Z,51
2018-07-30T16:50:23.398Z,51
2018-07-30T16:55:59.783Z,51
2018-07-30T17:01:25.422Z,51
2018-07-30T17:06:57.332Z,51
2018-07-30T17:12:28.496Z,51
2018-07-30T17:18:00.409Z,52
2018-07-30T17:23:36.224Z,52
2018-07-30T17:29:01.801Z,52
2018-07-30T17:34:33.133Z,53
2018-07-30T17:40:05.460Z,53
2018-07-30T17:45:36.224Z,53
2018-07-30T17:51:07.076Z,53
2018-07-30T17:56:39.016Z,53
2018-07-30T18:02:10.623Z,53
2018-07-30T18:07:41.574Z,53
2018-07-30T18:13:12.491Z,53
2018-07-30T18:18:43.101Z,54
2018-07-30T18:24:18.891Z,54
2018-07-30T18:29:49.637Z,54
2018-07-30T18:35:16.373Z,55
2018-07-30T18:40:47.463Z,56
2018-07-30T18:46:23.875Z,56
2018-07-30T18:51:49.767Z,57
2018-07-30T18:57:20.319Z,57
2018-07-30T19:02:51.993Z,58
2018-07-30T19:08:22.609Z,58
2018-07-30T19:13:53.280Z,58
2018-07-30T19:19:24.926Z,59
2018-07-30T19:24:55.242Z,59
2018-07-30T19:30:31.747Z,60
2018-07-30T19:36:03.259Z,60
2018-07-30T19:41:29.703Z,60
2018-07-30T19:47:05.450Z,61
2018-07-30T19:52:30.643Z,61
2018-07-30T19:58:01.549Z,61
2018-07-30T20:03:31.655Z,62
2018-07-30T20:09:03.305Z,62
2018-07-30T20:14:33.480Z,62
2018-07-30T20:20:04.909Z,62
2018-07-30T20:25:40.655Z,62
2018-07-30T20:31:10.733Z,62
2018-07-30T20:36:36.233Z,62
2018-07-30T20:42:11.631Z,62
2018-07-30T20:47:37.213Z,63
2018-07-30T20:53:07.626Z,63
2018-07-30T20:58:43.764Z,63
2018-07-30T21:04:10.263Z,63
2018-07-30T21:09:45.847Z,63
2018-07-30T21:15:11.132Z,63
2018-07-30T21:20:41.309Z,63
2018-07-30T21:26:11.611Z,64
2018-07-30T21:31:47.228Z,64
2018-07-30T21:37:13.442Z,64
2018-07-30T21:42:44.592Z,64
2018-07-30T21:48:14.991Z,64
2018-07-30T21:53:45.573Z,64
2018-07-30T21:59:15.605Z,64
2018-07-30T22:04:46.129Z,64
2018-07-30T22:10:16.253Z,64
2018-07-30T22:15:46.599Z,64
2018-07-30T22:21:16.829Z,65
2018-07-30T22:26:48.416Z,65
2018-07-30T22:32:18.649Z,65
2018-07-30T22:37:48.795Z,65
2018-07-30T22:43:20.195Z,65
2018-07-30T22:48:55.505Z,65
2018-07-30T22:59:52.026Z,66
2018-07-30T23:05:28.328Z,66
2018-07-30T23:10:53.253Z,66
2018-07-30T23:16:28.543Z,67
2018-07-30T23:22:00.047Z,67
2018-07-30T23:27:26.377Z,67
2018-07-30T23:33:02.435Z,68
2018-07-30T23:38:28.637Z,68
2018-07-30T23:43:58.701Z,68
2018-07-30T23:49:34.029Z,68
2018-07-30T23:55:00.270Z,69
